Time;durP1;ratioP1;P1;durP2;ratioP2;P2;SDS_P1;SDS_P2;PMS_P1;PMS_P2;Temp;Humidity;BMP_temperature;BMP_pressure;BME280_temperature;BME280_humidity;BME280_pressure;Samples;Min_cycle;Max_cycle;Signal;HPM_P1;HPM_P2
2023/10/02 16:52:14;;;;;;;7.55;2.08;;;20.90;61.40;;;;;;5068503;28;20416;-80
2023/10/02 16:54:41;;;;;;;9.93;2.38;;;;;;;;;;5073483;28;20037;-81
2023/10/02 16:57:07;;;;;;;4.78;2.05;;;19.10;63.70;;;;;;5058566;28;20088;-82
2023/10/02 16:59:33;;;;;;;7.70;2.40;;;19.50;76.50;;;;;;5093507;28;20227;-73
2023/10/02 17:01:59;;;;;;;7.03;2.10;;;;;;;;;;5077588;28;20013;-78
2023/10/02 17:04:26;;;;;;;3.88;2.05;;;18.70;68.60;;;;;;5075609;28;20013;-79
2023/10/02 17:06:52;;;;;;;7.70;2.65;;;18.60;69.70;;;;;;5075599;28;20021;-82
2023/10/02 17:09:18;;;;;;;4.82;2.20;;;18.50;79.10;;;;;;5064788;28;20465;-80
2023/10/02 17:11:44;;;;;;;5.50;2.60;;;;;;;;;;5076868;28;20067;-85
2023/10/02 17:14:10;;;;;;;7.65;2.45;;;;;;;;;;5072410;28;20016;-78
2023/10/02 17:16:37;;;;;;;6.55;3.22;;;18.50;70.90;;;;;;5075399;28;20031;-79
2023/10/02 17:19:03;;;;;;;11.27;3.33;;;18.70;74.80;;;;;;5076001;28;20024;-79
2023/10/02 17:21:29;;;;;;;9.90;3.42;;;18.10;71.50;;;;;;5076882;28;20328;-78
2023/10/02 17:23:56;;;;;;;6.93;3.05;;;;;;;;;;5075953;28;20078;-79
2023/10/02 17:26:22;;;;;;;10.77;3.13;;;;;;;;;;5076499;28;20036;-81
2023/10/02 17:28:48;;;;;;;6.53;2.83;;;17.70;81.40;;;;;;5068291;28;20025;-78
2023/10/02 17:31:15;;;;;;;6.78;2.67;;;17.40;73.60;;;;;;5055542;28;20379;-80
2023/10/02 17:33:42;;;;;;;6.60;2.55;;;;;;;;;;5055846;28;20056;-81
2023/10/02 17:36:09;;;;;;;8.38;3.08;;;17.60;74.10;;;;;;5056071;28;20059;-78
2023/10/02 17:38:35;;;;;;;7.03;2.78;;;17.80;83.90;;;;;;5056119;28;20025;-81
2023/10/02 17:41:01;;;;;;;7.45;2.53;;;;;;;;;;5057568;28;20029;-81
2023/10/02 17:43:28;;;;;;;15.95;3.83;;;16.90;83.40;;;;;;5056496;28;20527;-78
2023/10/02 17:45:55;;;;;;;10.60;3.97;;;17.40;74.70;;;;;;5056113;28;20325;-82
2023/10/02 17:48:22;;;;;;;8.93;3.95;;;17.10;74.10;;;;;;5055409;28;20036;-80
2023/10/02 17:50:52;;;;;;;21.25;3.88;;;;;;;;;;5055298;28;20053;-81
2023/10/02 17:53:18;;;;;;;17.90;4.15;;;17.40;83.40;;;;;;5055433;28;20095;-80
2023/10/02 17:55:45;;;;;;;8.73;3.67;;;;;;;;;;5057324;28;20017;-82
2023/10/02 17:58:14;;;;;;;10.60;3.80;;;16.80;84.00;;;;;;5056471;28;20025;-83
2023/10/02 18:00:41;;;;;;;13.43;4.10;;;16.80;84.70;;;;;;5055678;28;20033;-79
2023/10/02 18:03:10;;;;;;;11.32;4.10;;;16.70;84.70;;;;;;5045017;28;20029;-82
2023/10/02 18:05:36;;;;;;;;;;;17.10;76.20;;;;;;5043311;28;20032;-81
2023/10/02 18:08:05;;;;;;;13.68;5.25;;;16.80;82.90;;;;;;5042911;28;19936;-79
2023/10/02 18:10:33;;;;;;;10.50;4.85;;;16.80;76.40;;;;;;5042152;28;20241;-79
2023/10/02 18:12:59;;;;;;;12.50;4.78;;;17.30;77.10;;;;;;5042688;28;20384;-83
2023/10/02 18:15:26;;;;;;;9.18;4.07;;;16.80;76.80;;;;;;5042460;28;20057;-82
2023/10/02 18:17:53;;;;;;;10.40;4.43;;;17.00;85.80;;;;;;5042717;28;20017;-82
2023/10/02 18:20:19;;;;;;;13.07;4.40;;;;;;;;;;5042749;28;20100;-84
2023/10/02 18:22:46;;;;;;;9.63;4.43;;;16.50;76.80;;;;;;5044017;28;20051;-82
2023/10/02 18:25:13;;;;;;;11.52;4.03;;;16.50;77.70;;;;;;5042696;28;20353;-86
2023/10/02 18:27:39;;;;;;;8.75;3.92;;;16.50;77.40;;;;;;5042233;28;20029;-82
2023/10/02 18:30:10;;;;;;;11.00;3.95;;;16.30;77.70;;;;;;5042260;28;20102;-81
2023/10/02 18:32:53;;;;;;;14.40;4.20;;;;;;;;;;5027451;28;20451;-80
2023/10/02 18:35:21;;;;;;;11.27;5.00;;;16.60;80.50;;;;;;5018439;28;20076;-81
2023/10/02 18:37:47;;;;;;;9.55;4.25;;;;;;;;;;5021151;28;20033;-80
2023/10/02 18:40:13;;;;;;;11.75;4.40;;;16.50;86.80;;;;;;5021278;28;20261;-81
2023/10/02 18:42:40;;;;;;;11.13;3.83;;;;;;;;;;5025003;28;20176;-81
2023/10/02 18:45:09;;;;;;;11.45;4.57;;;16.10;78.70;;;;;;5022761;28;20040;-82
2023/10/02 18:47:36;;;;;;;9.75;3.85;;;15.60;87.00;;;;;;5006062;28;20030;-80
2023/10/02 18:50:07;;;;;;;13.90;4.10;;;15.80;86.80;;;;;;5024140;28;20029;-79
2023/10/02 18:52:35;;;;;;;9.52;3.70;;;16.10;89.10;;;;;;5024429;28;20033;-80
2023/10/02 18:55:02;;;;;;;11.27;3.30;;;15.90;79.40;;;;;;5024954;28;20121;-81
2023/10/02 18:57:28;;;;;;;8.68;4.22;;;;;;;;;;5032919;28;20097;-81
2023/10/02 18:59:56;;;;;;;9.70;3.15;;;16.00;88.00;;;;;;5034871;28;20032;-80
2023/10/02 19:02:23;;;;;;;7.32;3.53;;;15.50;85.50;;;;;;5057369;28;20025;-78
2023/10/02 19:04:51;;;;;;;8.07;3.60;;;15.70;80.20;;;;;;5073992;28;20043;-79
2023/10/02 19:07:19;;;;;;;10.00;3.63;;;15.70;80.40;;;;;;5042362;28;20022;-80
2023/10/02 19:09:46;;;;;;;5.55;3.50;;;;;;;;;;5041139;28;20254;-82
2023/10/02 19:12:13;;;;;;;10.73;3.30;;;;;;;;;;5041209;28;20033;-79
2023/10/02 19:14:39;;;;;;;12.93;3.60;;;;;;;;;;5040248;28;20093;-80
2023/10/02 19:17:05;;;;;;;9.45;3.17;;;;;;;;;;5041186;28;20025;-78
2023/10/02 19:19:32;;;;;;;16.15;3.78;;;15.40;80.80;;;;;;5040942;28;20044;-79
2023/10/02 19:21:58;;;;;;;11.77;3.38;;;15.40;81.00;;;;;;5040985;28;20351;-79
2023/10/02 19:24:24;;;;;;;12.18;3.13;;;15.20;90.00;;;;;;5040843;28;20018;-79
2023/10/02 19:26:51;;;;;;;8.23;3.40;;;;;;;;;;5040768;28;20079;-81
2023/10/02 19:29:18;;;;;;;8.27;3.55;;;15.60;82.40;;;;;;5040922;28;20075;-82
2023/10/02 19:31:45;;;;;;;14.43;3.83;;;15.60;90.00;;;;;;5040772;28;20045;-81
2023/10/02 19:34:11;;;;;;;5.70;3.30;;;15.00;86.30;;;;;;5040814;28;20596;-80
2023/10/02 19:36:38;;;;;;;10.73;3.75;;;;;;;;;;5035910;28;20063;-79
2023/10/02 19:39:07;;;;;;;22.70;3.45;;;15.40;90.50;;;;;;5037834;28;20014;-81
2023/10/02 19:41:33;;;;;;;6.47;2.78;;;;;;;;;;5041401;28;20055;-86
2023/10/02 19:43:59;;;;;;;7.25;3.80;;;15.10;90.20;;;;;;5041402;28;20337;-81
2023/10/02 19:46:25;;;;;;;6.40;2.55;;;15.00;89.90;;;;;;5041047;28;20063;-79
2023/10/02 19:48:52;;;;;;;8.68;3.75;;;15.40;88.10;;;;;;5040935;28;20025;-80
2023/10/02 19:51:18;;;;;;;11.00;3.78;;;14.70;84.10;;;;;;5040539;28;20237;-80
2023/10/02 19:53:50;;;;;;;7.88;2.88;;;15.00;83.40;;;;;;5042748;28;20045;-84
2023/10/02 19:56:17;;;;;;;8.82;3.85;;;;;;;;;;5041443;28;20033;-85
2023/10/02 19:58:43;;;;;;;5.82;3.20;;;14.60;82.70;;;;;;5041092;28;20029;-83
2023/10/02 20:01:12;;;;;;;7.60;3.55;;;15.20;84.60;;;;;;5042758;28;20018;-85
2023/10/02 20:03:38;;;;;;;7.18;3.42;;;;;;;;;;5042532;28;20009;-84
2023/10/02 20:06:14;;;;;;;10.68;3.10;;;15.00;89.70;;;;;;5044168;28;20052;-84
2023/10/02 20:08:41;;;;;;;12.55;3.35;;;15.10;88.90;;;;;;5045029;28;20136;-88
2023/10/02 20:11:07;;;;;;;11.40;3.35;;;14.70;82.20;;;;;;5034190;28;20108;-83
2023/10/02 20:13:34;;;;;;;9.57;3.65;;;14.70;82.10;;;;;;5044421;28;20027;-85
2023/10/02 20:16:00;;;;;;;9.85;3.75;;;14.60;83.50;;;;;;5043272;28;20052;-83
2023/10/02 20:18:28;;;;;;;7.30;3.35;;;14.70;83.30;;;;;;5042135;28;20024;-83
2023/10/02 20:20:55;;;;;;;7.78;3.55;;;14.50;91.20;;;;;;5038290;28;20030;-82
2023/10/02 20:23:21;;;;;;;9.45;3.38;;;14.70;85.50;;;;;;5022318;28;20028;-83
2023/10/02 20:25:48;;;;;;;5.68;3.20;;;14.50;83.60;;;;;;5022266;28;20029;-84
2023/10/02 20:28:14;;;;;;;11.50;3.38;;;;;;;;;;5040991;28;20025;-80
2023/10/02 20:30:40;;;;;;;13.18;3.28;;;;;;;;;;5038374;28;20345;-82
2023/10/02 20:33:07;;;;;;;9.70;3.42;;;14.50;83.30;;;;;;5053462;28;20029;-81
2023/10/02 20:35:42;;;;;;;7.43;3.65;;;14.40;83.20;;;;;;5038053;28;20033;-80
2023/10/02 20:38:12;;;;;;;10.35;4.40;;;14.40;83.90;;;;;;5020183;28;20022;-79
2023/10/02 20:40:42;;;;;;;9.30;2.90;;;;;;;;;;5020117;28;20044;-80
2023/10/02 20:43:07;;;;;;;9.70;3.15;;;14.70;87.30;;;;;;5048402;28;20104;-80
2023/10/02 20:45:36;;;;;;;9.55;3.20;;;14.30;91.90;;;;;;5020183;28;20260;-79
2023/10/02 20:48:04;;;;;;;10.30;3.05;;;14.40;92.10;;;;;;5037294;28;20029;-81
2023/10/02 20:50:32;;;;;;;;;;;14.20;85.10;;;;;;5040174;28;20053;-81
2023/10/02 20:52:58;;;;;;;4.57;2.67;;;14.40;92.80;;;;;;5040066;28;19904;-80
2023/10/02 20:55:26;;;;;;;8.48;2.97;;;;;;;;;;5041439;28;20071;-83
2023/10/02 20:57:54;;;;;;;7.95;2.88;;;14.50;92.70;;;;;;5039737;28;20486;-86
2023/10/02 21:00:19;;;;;;;5.57;4.10;;;14.20;91.00;;;;;;5042535;28;20029;-83
2023/10/02 21:02:46;;;;;;;8.73;3.70;;;;;;;;;;5042115;28;20029;-81
2023/10/02 21:05:12;;;;;;;6.68;3.33;;;13.80;93.00;;;;;;5040664;28;20025;-83
2023/10/02 21:07:40;;;;;;;8.07;3.15;;;13.80;87.60;;;;;;5040614;28;20025;-83
2023/10/02 21:10:06;;;;;;;8.15;3.10;;;;;;;;;;5040093;28;20036;-81
2023/10/02 21:12:33;;;;;;;7.72;3.70;;;;;;;;;;5040126;28;20120;-82
2023/10/02 21:14:59;;;;;;;6.47;2.80;;;;;;;;;;5042095;28;20040;-82
2023/10/02 21:17:25;;;;;;;5.70;2.53;;;;;;;;;;5041597;28;20025;-83
2023/10/02 21:19:55;;;;;;;9.20;3.10;;;13.70;87.60;;;;;;5042514;28;20283;-85
2023/10/02 21:22:21;;;;;;;4.63;2.55;;;13.80;87.80;;;;;;5042902;28;20025;-83
2023/10/02 21:24:47;;;;;;;7.25;2.97;;;13.50;89.10;;;;;;5041867;28;20026;-84
2023/10/02 21:27:12;;;;;;;5.65;2.53;;;14.00;93.30;;;;;;5042463;28;20059;-85
2023/10/02 21:29:38;;;;;;;5.95;2.60;;;;;;;;;;5042473;28;20022;-83
2023/10/02 21:32:04;;;;;;;6.90;2.40;;;14.00;93.60;;;;;;5041615;28;20029;-86
2023/10/02 21:34:30;;;;;;;9.40;3.40;;;;;;;;;;5040484;28;20033;-81
2023/10/02 21:36:57;;;;;;;9.35;2.70;;;13.30;87.20;;;;;;5040700;28;20272;-82
2023/10/02 21:39:23;;;;;;;8.43;3.50;;;13.80;92.90;;;;;;5039642;28;20044;-82
2023/10/02 21:41:49;;;;;;;4.95;3.03;;;;;;;;;;5045187;28;20033;-87
2023/10/02 21:44:14;;;;;;;4.57;2.78;;;13.50;92.90;;;;;;5044278;28;20017;-85
2023/10/02 21:46:40;;;;;;;7.95;2.55;;;;;;;;;;5046116;28;20052;-84
2023/10/02 21:49:08;;;;;;;8.70;3.00;;;;;;;;;;5043541;28;20333;-86
2023/10/02 21:51:34;;;;;;;7.47;3.17;;;;;;;;;;5044311;28;20060;-83
2023/10/02 21:53:59;;;;;;;8.95;3.15;;;13.50;93.40;;;;;;5044946;28;20022;-84
2023/10/02 21:56:27;;;;;;;6.60;3.53;;;;;;;;;;5044164;28;20029;-84
2023/10/02 21:58:56;;;;;;;7.95;3.08;;;13.30;93.40;;;;;;5044806;28;20017;-84
2023/10/02 22:01:22;;;;;;;9.30;3.70;;;13.80;89.70;;;;;;5043302;28;20021;-81
2023/10/02 22:03:52;;;;;;;5.03;2.72;;;;;;;;;;5042866;28;20014;-83
2023/10/02 22:06:20;;;;;;;6.63;3.10;;;13.80;93.90;;;;;;5043428;28;20317;-85
2023/10/02 22:08:48;;;;;;;8.65;3.13;;;;;;;;;;5046708;28;20021;-85
2023/10/02 22:11:15;;;;;;;9.18;2.83;;;;;;;;;;5043813;28;20059;-83
2023/10/02 22:13:41;;;;;;;10.20;3.05;;;;;;;;;;5044637;28;20025;-84
2023/10/02 22:16:07;;;;;;;7.75;2.70;;;;;;;;;;5044578;28;20108;-84
2023/10/02 22:18:33;;;;;;;6.03;2.75;;;13.40;93.80;;;;;;5044443;28;20013;-84
2023/10/02 22:21:10;;;;;;;5.38;2.72;;;13.40;93.80;;;;;;5044846;28;20049;-86
2023/10/02 22:23:38;;;;;;;10.55;3.22;;;;;;;;;;5044283;28;20036;-84
2023/10/02 22:26:04;;;;;;;6.38;2.83;;;13.50;94.10;;;;;;5044481;28;20030;-85
2023/10/02 22:28:31;;;;;;;5.22;2.80;;;;;;;;;;5042825;28;20234;-84
2023/10/02 22:30:57;;;;;;;5.78;2.67;;;;;;;;;;5042989;28;20045;-87
2023/10/02 22:33:23;;;;;;;6.32;2.75;;;12.70;94.70;;;;;;5043214;28;20020;-85
2023/10/02 22:35:49;;;;;;;7.88;3.00;;;;;;;;;;5040716;28;20026;-82
2023/10/02 22:38:16;;;;;;;5.20;2.80;;;;;;;;;;5024948;28;20029;-85
2023/10/02 22:40:42;;;;;;;7.40;2.70;;;13.10;90.00;;;;;;5025468;28;20088;-86
2023/10/02 22:43:08;;;;;;;6.28;2.85;;;;;;;;;;5045297;28;20055;-83
2023/10/02 22:45:36;;;;;;;6.20;2.58;;;12.80;94.50;;;;;;5046126;28;20512;-80
2023/10/02 22:48:03;;;;;;;5.75;2.30;;;;;;;;;;5042352;28;20049;-85
2023/10/02 22:50:30;;;;;;;5.97;3.08;;;;;;;;;;5035847;28;20038;-84
2023/10/02 22:52:57;;;;;;;5.60;2.50;;;;;;;;;;5037195;28;20072;-85
2023/10/02 22:55:23;;;;;;;7.40;2.95;;;13.10;93.80;;;;;;5041477;28;20052;-84
2023/10/02 22:57:51;;;;;;;7.70;2.70;;;13.20;90.10;;;;;;5037858;28;20025;-84
2023/10/02 23:00:18;;;;;;;6.13;2.45;;;13.60;91.80;;;;;;5023393;28;20049;-85
2023/10/02 23:02:48;;;;;;;10.25;2.50;;;13.20;90.40;;;;;;5023404;28;20093;-83
2023/10/02 23:05:15;;;;;;;5.40;2.65;;;13.40;94.20;;;;;;5023401;28;20057;-85
2023/10/02 23:07:43;;;;;;;9.43;2.60;;;13.10;90.70;;;;;;5023605;28;20505;-85
2023/10/02 23:10:18;;;;;;;;;;;13.10;90.90;;;;;;5030037;28;20018;-86
2023/10/02 23:12:46;;;;;;;5.10;2.58;;;12.60;95.60;;;;;;5043493;28;19911;-84
2023/10/02 23:15:12;;;;;;;6.00;2.72;;;;;;;;;;5043336;28;20029;-87
2023/10/02 23:17:39;;;;;;;7.13;2.95;;;13.40;94.00;;;;;;5043571;28;20032;-85
2023/10/02 23:20:12;;;;;;;5.53;2.80;;;12.80;95.10;;;;;;5044161;28;20063;-85
2023/10/02 23:22:48;;;;;;;5.60;3.10;;;13.30;95.50;;;;;;5043460;28;20033;-83
2023/10/02 23:25:18;;;;;;;5.82;2.75;;;12.60;91.20;;;;;;5043681;28;20096;-83
2023/10/02 23:27:53;;;;;;;5.85;3.45;;;13.10;91.00;;;;;;5043061;28;20021;-86
2023/10/02 23:30:20;;;;;;;5.78;2.38;;;13.00;91.30;;;;;;5035716;28;20037;-86
2023/10/02 23:32:54;;;;;;;7.13;2.88;;;12.70;95.40;;;;;;5043420;28;20096;-83
2023/10/02 23:35:21;;;;;;;5.20;2.58;;;13.50;94.10;;;;;;5042892;28;20025;-83
2023/10/02 23:37:51;;;;;;;5.45;2.33;;;;;;;;;;5042785;28;20021;-83
2023/10/02 23:40:18;;;;;;;5.78;2.60;;;13.10;90.60;;;;;;5042762;28;20036;-83
2023/10/02 23:42:44;;;;;;;8.63;2.97;;;13.40;94.90;;;;;;5042867;28;20248;-87
2023/10/02 23:45:14;;;;;;;5.03;2.45;;;12.70;94.70;;;;;;5043029;28;20025;-85
2023/10/02 23:47:44;;;;;;;5.50;2.35;;;12.80;94.70;;;;;;5043148;28;20025;-85
2023/10/02 23:50:17;;;;;;;8.10;2.60;;;13.00;91.40;;;;;;5042836;28;20048;-85
2023/10/02 23:52:49;;;;;;;9.18;2.90;;;12.60;94.60;;;;;;5043048;28;20072;-84
2023/10/02 23:55:23;;;;;;;5.78;2.40;;;13.20;92.00;;;;;;5044017;28;20029;-83
2023/10/02 23:57:49;;;;;;;5.75;2.90;;;;;;;;;;5041143;28;20044;-84
